Time;durP1;ratioP1;P1;durP2;ratioP2;P2;SDS_P1;SDS_P2;PMS_P1;PMS_P2;Temp;Humidity;BMP_temperature;BMP_pressure;BME280_temperature;BME280_humidity;BME280_pressure;Samples;Min_cycle;Max_cycle;Signal;HPM_P1;HPM_P2
2023/10/07 00:02:13;;;;;;;1999.90;999.90;;;;;;;;;;6183444;23;20001;-73
2023/10/07 00:04:44;;;;;;;1999.90;999.90;;;;;;;;;;6183372;23;20087;-71
2023/10/07 00:07:10;;;;;;;1999.90;999.90;;;;;;;;;;6182972;23;20009;-70
2023/10/07 00:09:43;;;;;;;1999.90;999.90;;;;;;;;;;6183506;23;20001;-70
2023/10/07 00:12:13;;;;;;;1999.90;999.90;;;;;;;;;;6182692;23;20071;-70
2023/10/07 00:14:40;;;;;;;1999.90;999.90;;;;;;;;;;6182723;23;20005;-72
2023/10/07 00:17:11;;;;;;;1999.90;999.90;;;;;;;;;;6183170;23;20002;-72
2023/10/07 00:19:39;;;;;;;1999.90;999.90;;;;;;;;;;6157494;23;20337;-72
2023/10/07 00:22:08;;;;;;;1999.90;999.90;;;;;;;;;;6156944;23;20392;-73
2023/10/07 00:24:40;;;;;;;1999.90;999.90;;;;;;;;;;6184124;23;20054;-73
2023/10/07 00:27:18;;;;;;;1999.90;999.90;;;;;;;;;;6184194;23;20456;-65
2023/10/07 00:29:54;;;;;;;1999.90;999.90;;;;;;;;;;6184241;23;20029;-73
2023/10/07 00:32:26;;;;;;;1999.90;999.90;;;;;;;;;;6183589;23;20048;-71
2023/10/07 00:34:52;;;;;;;1999.90;999.90;;;;;;;;;;6184176;23;20055;-71
2023/10/07 00:37:18;;;;;;;1999.90;999.90;;;;;;;;;;6184239;23;20005;-71
2023/10/07 00:39:46;;;;;;;1999.90;999.90;;;;;;;;;;6183620;23;20004;-73
2023/10/07 00:42:12;;;;;;;1999.90;999.90;;;;;;;;;;6183346;23;20449;-72
2023/10/07 00:44:39;;;;;;;1999.90;999.90;;;;;;;;;;6183217;23;20075;-70
2023/10/07 00:49:41;;;;;;;1999.90;999.90;;;;;;;;;;6193271;23;20012;-72
2023/10/07 00:52:14;;;;;;;1999.90;999.90;;;;;;;;;;6183439;23;20051;-70
2023/10/07 00:57:23;;;;;;;1999.90;999.90;;;;;;;;;;6186256;23;20430;-73
2023/10/07 00:59:56;;;;;;;1999.90;999.90;;;;;;;;;;6183569;23;20093;-72
2023/10/07 01:02:31;;;;;;;1999.90;999.90;;;;;;;;;;6183539;23;20001;-72
2023/10/07 01:05:09;;;;;;;1999.90;999.90;;;;;;;;;;6184123;23;20021;-73
2023/10/07 01:07:36;;;;;;;1999.90;999.90;;;;;;;;;;6183844;23;20028;-67
2023/10/07 01:12:38;;;;;;;1999.90;999.90;;;;;;;;;;6183413;23;20088;-67
2023/10/07 01:15:17;;;;;;;1999.90;999.90;;;;;;;;;;6183480;23;20001;-68
2023/10/07 01:17:43;;;;;;;1999.90;999.90;;;;;;;;;;6183705;23;20001;-73
2023/10/07 01:20:10;;;;;;;1999.90;999.90;;;;;;;;;;6183356;23;20005;-73
2023/10/07 01:22:36;;;;;;;1999.90;999.90;;;;;;;;;;6183586;23;20016;-71
2023/10/07 01:25:09;;;;;;;1999.90;999.90;;;;;;;;;;6183129;23;20075;-70
2023/10/07 01:27:42;;;;;;;1999.90;999.90;;;;;;;;;;6183469;23;20005;-72
2023/10/07 01:33:46;;;;;;;1999.90;999.90;;;;;;;;;;6184077;23;20086;-71
2023/10/07 01:35:39;;;;;;;1999.90;999.90;;;;;;;;;;6163879;23;20016;-72
2023/10/07 01:38:08;;;;;;;1999.90;999.90;;;;;;;;;;6183914;23;20055;-71
2023/10/07 01:40:45;;;;;;;1999.90;999.90;;;;;;;;;;6183002;23;20005;-73
2023/10/07 01:43:11;;;;;;;1999.90;999.90;;;;;;;;;;6182981;23;20005;-72
2023/10/07 01:45:39;;;;;;;1999.90;999.90;;;;;;;;;;6183329;23;20091;-72
2023/10/07 01:48:08;;;;;;;1999.90;999.90;;;;;;;;;;6183508;23;20059;-69
2023/10/07 01:50:39;;;;;;;1999.90;999.90;;;;;;;;;;6183273;23;20052;-71
2023/10/07 01:53:05;;;;;;;1999.90;999.90;;;;;;;;;;6183374;23;20005;-72
2023/10/07 01:55:42;;;;;;;1999.90;999.90;;;;;;;;;;6183066;23;20033;-72
2023/10/07 01:58:16;;;;;;;1999.90;999.90;;;;;;;;;;6182189;23;20019;-72
2023/10/07 02:00:44;;;;;;;1999.90;999.90;;;;;;;;;;6182734;23;20333;-72
2023/10/07 02:03:16;;;;;;;1999.90;999.90;;;;;;;;;;6182245;23;20120;-68
2023/10/07 02:05:49;;;;;;;1999.90;999.90;;;;;;;;;;6156307;23;20013;-66
2023/10/07 02:08:18;;;;;;;;;;;;;;;;;;6183058;23;20008;-72
2023/10/07 02:10:46;;;;;;;1999.90;999.90;;;;;;;;;;6182306;23;20461;-72
2023/10/07 02:13:14;;;;;;;1999.90;999.90;;;;;;;;;;6182676;23;20021;-72
2023/10/07 02:15:42;;;;;;;1999.90;999.90;;;;;;;;;;6183196;23;20009;-71
2023/10/07 02:18:15;;;;;;;1999.90;999.90;;;;;;;;;;6182982;23;20380;-71
2023/10/07 02:21:07;;;;;;;1999.90;999.90;;;;;;;;;;6155805;23;20430;-67
2023/10/07 02:23:43;;;;;;;1999.90;999.90;;;;;;;;;;6155835;23;20011;-72
2023/10/07 02:26:19;;;;;;;1999.90;999.90;;;;;;;;;;6181555;23;20024;-72
2023/10/07 02:28:46;;;;;;;1999.90;999.90;;;;;;;;;;6183088;23;20005;-71
2023/10/07 02:31:16;;;;;;;1999.90;999.90;;;;;;;;;;6182596;23;20043;-70
2023/10/07 02:33:42;;;;;;;1999.90;999.90;;;;;;;;;;6182531;23;20148;-71
2023/10/07 02:36:22;;;;;;;1999.90;999.90;;;;;;;;;;6183093;23;20455;-65
2023/10/07 02:38:53;;;;;;;1999.90;999.90;;;;;;;;;;6183010;23;20009;-72
2023/10/07 02:41:20;;;;;;;1999.90;999.90;;;;;;;;;;6182062;23;20051;-71
2023/10/07 02:43:49;;;;;;;1999.90;999.90;;;;;;;;;;6182782;23;19997;-72
2023/10/07 02:46:27;;;;;;;1999.90;999.90;;;;;;;;;;6182969;23;20013;-64
2023/10/07 02:49:01;;;;;;;1999.90;999.90;;;;;;;;;;6182862;23;20080;-64
2023/10/07 02:51:27;;;;;;;1999.90;999.90;;;;;;;;;;6182760;23;20029;-68
2023/10/07 02:54:00;;;;;;;1999.90;999.90;;;;;;;;;;6182819;23;20072;-73
2023/10/07 02:56:29;;;;;;;1999.90;999.90;;;;;;;;;;6155645;23;20330;-72
2023/10/07 02:59:00;;;;;;;1999.90;999.90;;;;;;;;;;6182678;23;20081;-72
2023/10/07 03:01:26;;;;;;;1999.90;999.90;;;;;;;;;;6182384;23;20091;-72
2023/10/07 03:03:52;;;;;;;1999.90;999.90;;;;;;;;;;6182866;23;20014;-69
2023/10/07 03:06:18;;;;;;;1999.90;999.90;;;;;;;;;;6182739;23;20013;-71
2023/10/07 03:11:12;;;;;;;1999.90;999.90;;;;;;;;;;6192818;23;20013;-72
2023/10/07 03:13:45;;;;;;;1999.90;999.90;;;;;;;;;;6156846;23;20745;-63
2023/10/07 03:24:10;;;;;;;1999.90;999.90;;;;;;;;;;6094634;23;20006;-70
2023/10/07 03:26:41;;;;;;;1999.90;999.90;;;;;;;;;;6093395;23;20025;-71
2023/10/07 03:29:07;;;;;;;1999.90;999.90;;;;;;;;;;6093655;23;20456;-70
2023/10/07 03:31:55;;;;;;;1999.90;999.90;;;;;;;;;;6092860;23;20014;-72
2023/10/07 03:34:20;;;;;;;1999.90;999.90;;;;;;;;;;6092319;23;20026;-68
2023/10/07 03:42:16;;;;;;;1999.90;999.90;;;;;;;;;;6092829;23;20069;-71
2023/10/07 03:44:42;;;;;;;1999.90;999.90;;;;;;;;;;6092544;23;20351;-72
2023/10/07 03:47:10;;;;;;;1999.90;999.90;;;;;;;;;;6093035;23;20006;-72
2023/10/07 03:49:40;;;;;;;1999.90;999.90;;;;;;;;;;6092632;23;20022;-71
2023/10/07 03:52:08;;;;;;;1999.90;999.90;;;;;;;;;;6092905;23;20003;-66
2023/10/07 03:54:34;;;;;;;1999.90;999.90;;;;;;;;;;6092160;23;20085;-70
2023/10/07 03:57:00;;;;;;;1999.90;999.90;;;;;;;;;;6092163;23;20026;-72
2023/10/07 03:59:34;;;;;;;1999.90;999.90;;;;;;;;;;6169754;23;20338;-71
2023/10/07 04:02:00;;;;;;;1999.90;999.90;;;;;;;;;;6183177;23;20417;-72
2023/10/07 04:04:28;;;;;;;1999.90;999.90;;;;;;;;;;6183950;23;20035;-73
2023/10/07 04:06:54;;;;;;;1999.90;999.90;;;;;;;;;;6183971;23;20008;-72
2023/10/07 04:09:32;;;;;;;1999.90;999.90;;;;;;;;;;6184085;23;20001;-72
2023/10/07 04:11:59;;;;;;;1999.90;999.90;;;;;;;;;;6184112;23;20009;-72
2023/10/07 04:14:28;;;;;;;1999.90;999.90;;;;;;;;;;6184108;23;20001;-71
2023/10/07 04:17:05;;;;;;;1999.90;999.90;;;;;;;;;;6184361;23;20096;-73
2023/10/07 04:19:38;;;;;;;1999.90;999.90;;;;;;;;;;6184351;23;20080;-69
2023/10/07 04:22:07;;;;;;;1999.90;999.90;;;;;;;;;;6184007;23;20005;-70
2023/10/07 04:24:35;;;;;;;1999.90;999.90;;;;;;;;;;6183598;23;20020;-70
2023/10/07 04:27:05;;;;;;;1999.90;999.90;;;;;;;;;;6184092;23;20445;-72
2023/10/07 04:29:32;;;;;;;1999.90;999.90;;;;;;;;;;6183958;23;20001;-71
2023/10/07 04:31:59;;;;;;;1999.90;999.90;;;;;;;;;;6183476;23;20377;-71
2023/10/07 04:34:35;;;;;;;1999.90;999.90;;;;;;;;;;6184135;23;20016;-65
2023/10/07 04:40:27;;;;;;;1999.90;999.90;;;;;;;;;;6193889;23;20016;-72
2023/10/07 04:42:38;;;;;;;1999.90;999.90;;;;;;;;;;6183367;23;20023;-72
2023/10/07 04:45:35;;;;;;;1999.90;999.90;;;;;;;;;;6183861;23;20009;-70
2023/10/07 04:48:23;;;;;;;1999.90;999.90;;;;;;;;;;6184138;23;20007;-71
2023/10/07 04:51:03;;;;;;;1999.90;999.90;;;;;;;;;;6183566;23;20009;-71
2023/10/07 04:53:37;;;;;;;1999.90;999.90;;;;;;;;;;6184285;23;19997;-72
2023/10/07 04:56:04;;;;;;;1999.90;999.90;;;;;;;;;;6183971;23;20075;-71
2023/10/07 04:58:30;;;;;;;1999.90;999.90;;;;;;;;;;6183253;23;20445;-67
2023/10/07 05:01:04;;;;;;;1999.90;999.90;;;;;;;;;;6183685;23;20009;-70
2023/10/07 05:03:31;;;;;;;1999.90;999.90;;;;;;;;;;6183308;23;20005;-71
2023/10/07 05:05:58;;;;;;;1999.90;999.90;;;;;;;;;;6183940;23;20013;-69
2023/10/07 05:08:27;;;;;;;1999.90;999.90;;;;;;;;;;6183887;23;20027;-72
2023/10/07 05:10:54;;;;;;;1999.90;999.90;;;;;;;;;;6183523;23;20557;-71
2023/10/07 05:13:21;;;;;;;1999.90;999.90;;;;;;;;;;6183409;23;20005;-70
2023/10/07 05:15:47;;;;;;;1999.90;999.90;;;;;;;;;;6183657;23;20012;-72
2023/10/07 05:18:14;;;;;;;1999.90;999.90;;;;;;;;;;6183443;23;19997;-69
2023/10/07 05:20:41;;;;;;;1999.90;999.90;;;;;;;;;;6183493;23;20391;-69
2023/10/07 05:23:08;;;;;;;1999.90;999.90;;;;;;;;;;6183242;23;20032;-72
2023/10/07 05:25:48;;;;;;;1999.90;999.90;;;;;;;;;;6183071;23;20510;-72
2023/10/07 05:28:20;;;;;;;1999.90;999.90;;;;;;;;;;6183091;23;20017;-70
2023/10/07 05:30:50;;;;;;;1999.90;999.90;;;;;;;;;;6183566;23;20287;-69
2023/10/07 05:33:26;;;;;;;1999.90;999.90;;;;;;;;;;6182815;23;20052;-69
2023/10/07 05:35:54;;;;;;;1999.90;999.90;;;;;;;;;;6183251;23;20009;-69
2023/10/07 05:38:20;;;;;;;1999.90;999.90;;;;;;;;;;6183349;23;20093;-70
2023/10/07 05:40:49;;;;;;;1999.90;999.90;;;;;;;;;;6183205;23;20012;-74
2023/10/07 05:43:16;;;;;;;1999.90;999.90;;;;;;;;;;6182798;23;20114;-70
2023/10/07 05:45:42;;;;;;;1999.90;999.90;;;;;;;;;;6183089;23;20437;-72
2023/10/07 05:48:10;;;;;;;1999.90;999.90;;;;;;;;;;6183289;23;20079;-73
2023/10/07 05:50:36;;;;;;;1999.90;999.90;;;;;;;;;;6182996;23;20384;-68
2023/10/07 05:53:02;;;;;;;1999.90;999.90;;;;;;;;;;6182247;23;20005;-71
2023/10/07 05:55:29;;;;;;;1999.90;999.90;;;;;;;;;;6182695;23;20027;-73
2023/10/07 05:57:55;;;;;;;1999.90;999.90;;;;;;;;;;6182324;23;20035;-72
2023/10/07 06:00:24;;;;;;;1999.90;999.90;;;;;;;;;;6182720;23;20016;-70
2023/10/07 06:02:52;;;;;;;1999.90;999.90;;;;;;;;;;6182159;23;20001;-71
2023/10/07 06:05:27;;;;;;;1999.90;999.90;;;;;;;;;;6182079;23;20104;-71
2023/10/07 06:07:53;;;;;;;1999.90;999.90;;;;;;;;;;6182190;23;20084;-71
2023/10/07 06:10:19;;;;;;;1999.90;999.90;;;;;;;;;;6182314;23;20005;-64
2023/10/07 06:12:46;;;;;;;1999.90;999.90;;;;;;;;;;6182449;23;20321;-69
2023/10/07 06:15:12;;;;;;;1999.90;999.90;;;;;;;;;;6182593;23;20005;-71
2023/10/07 06:17:38;;;;;;;1999.90;999.90;;;;;;;;;;6182528;23;20076;-72
2023/10/07 06:20:18;;;;;;;1999.90;999.90;;;;;;;;;;6182155;23;20001;-72
2023/10/07 06:22:48;;;;;;;1999.90;999.90;;;;;;;;;;6182268;23;20378;-71
2023/10/07 06:25:15;;;;;;;1999.90;999.90;;;;;;;;;;6181459;23;20020;-70
2023/10/07 06:27:43;;;;;;;1999.90;999.90;;;;;;;;;;6182230;23;20080;-71
2023/10/07 06:30:20;;;;;;;1999.90;999.90;;;;;;;;;;6182152;23;20012;-70
2023/10/07 06:32:54;;;;;;;1999.90;999.90;;;;;;;;;;6182197;23;20009;-69
2023/10/07 06:35:23;;;;;;;1999.90;999.90;;;;;;;;;;6182058;23;20464;-70
2023/10/07 06:37:51;;;;;;;1999.90;999.90;;;;;;;;;;6182413;23;20008;-73
2023/10/07 06:40:28;;;;;;;1999.90;999.90;;;;;;;;;;6182326;23;20009;-76
2023/10/07 06:42:56;;;;;;;1999.90;999.90;;;;;;;;;;6182124;23;20055;-68
2023/10/07 06:45:22;;;;;;;1999.90;999.90;;;;;;;;;;6181871;23;20021;-70
2023/10/07 06:47:49;;;;;;;1999.90;999.90;;;;;;;;;;6181594;23;20430;-73
2023/10/07 06:50:20;;;;;;;1999.90;999.90;;;;;;;;;;6182519;23;19997;-67
2023/10/07 06:52:47;;;;;;;1999.90;999.90;;;;;;;;;;6182234;23;20001;-63
2023/10/07 06:55:16;;;;;;;1999.90;999.90;;;;;;;;;;6182751;23;20385;-74
2023/10/07 06:57:46;;;;;;;1999.90;999.90;;;;;;;;;;6183118;23;20001;-70
2023/10/07 07:00:22;;;;;;;1999.90;999.90;;;;;;;;;;6182203;23;20005;-70
2023/10/07 07:02:54;;;;;;;1999.90;999.90;;;;;;;;;;6182207;23;20413;-73
2023/10/07 07:05:22;;;;;;;1999.90;999.90;;;;;;;;;;6181500;23;20028;-74
2023/10/07 07:07:52;;;;;;;1999.90;999.90;;;;;;;;;;6181504;23;20004;-69
2023/10/07 07:10:27;;;;;;;1999.90;999.90;;;;;;;;;;6181545;23;20734;-70
2023/10/07 07:12:55;;;;;;;1999.90;999.90;;;;;;;;;;6182266;23;20001;-70
2023/10/07 07:15:28;;;;;;;1999.90;999.90;;;;;;;;;;6155460;23;20005;-72
2023/10/07 07:18:14;;;;;;;1999.90;999.90;;;;;;;;;;6184493;23;20005;-71
2023/10/07 07:23:32;;;;;;;1999.90;999.90;;;;;;;;;;6194831;23;20005;-60
2023/10/07 07:28:30;;;;;;;1999.90;999.90;;;;;;;;;;6192431;23;20012;-65
2023/10/07 07:30:59;;;;;;;1999.90;999.90;;;;;;;;;;6183577;23;20005;-67
2023/10/07 07:33:29;;;;;;;1999.90;999.90;;;;;;;;;;6182903;23;20013;-72
2023/10/07 07:35:58;;;;;;;1999.90;999.90;;;;;;;;;;6182384;23;20072;-71
2023/10/07 07:41:08;;;;;;;1999.90;999.90;;;;;;;;;;6192770;23;20071;-79
2023/10/07 07:43:37;;;;;;;1999.90;999.90;;;;;;;;;;6183139;23;20005;-82
2023/10/07 07:46:12;;;;;;;1999.90;999.90;;;;;;;;;;6181927;23;20689;-63
2023/10/07 07:48:38;;;;;;;1999.90;999.90;;;;;;;;;;6185933;23;20420;-72
2023/10/07 07:51:07;;;;;;;1999.90;999.90;;;;;;;;;;6183111;23;20436;-76
2023/10/07 07:53:33;;;;;;;1999.90;999.90;;;;;;;;;;6132286;23;20016;-74
2023/10/07 07:55:59;;;;;;;1999.90;999.90;;;;;;;;;;6182416;23;20005;-79
2023/10/07 07:58:25;;;;;;;1999.90;999.90;;;;;;;;;;6182823;23;20429;-75
2023/10/07 08:01:05;;;;;;;1999.90;999.90;;;;;;;;;;6184134;23;20005;-73
2023/10/07 08:03:35;;;;;;;1999.90;999.90;;;;;;;;;;6185909;23;20348;-70
2023/10/07 08:06:02;;;;;;;1999.90;999.90;;;;;;;;;;6184432;23;20064;-75
2023/10/07 08:08:29;;;;;;;1999.90;999.90;;;;;;;;;;6183573;23;20025;-74
2023/10/07 08:10:55;;;;;;;1999.90;999.90;;;;;;;;;;6183528;23;20004;-75
2023/10/07 08:13:30;;;;;;;1999.90;999.90;;;;;;;;;;6183789;23;20009;-76
2023/10/07 08:15:56;;;;;;;1999.90;999.90;;;;;;;;;;6184473;23;19997;-74
2023/10/07 08:18:28;;;;;;;1999.90;999.90;;;;;;;;;;6157338;23;20075;-77
2023/10/07 08:21:07;;;;;;;1999.90;999.90;;;;;;;;;;6183822;23;20333;-77
2023/10/07 08:23:37;;;;;;;1999.90;999.90;;;;;;;;;;6183848;23;20476;-74
2023/10/07 08:26:10;;;;;;;1999.90;999.90;;;;;;;;;;6157512;23;20429;-77
2023/10/07 08:28:59;;;;;;;1999.90;999.90;;;;;;;;;;6184101;23;20365;-76
2023/10/07 08:31:37;;;;;;;1999.90;999.90;;;;;;;;;;6157254;23;20043;-77
2023/10/07 08:36:37;;;;;;;1999.90;999.90;;;;;;;;;;6194260;23;20009;-77
2023/10/07 08:39:09;;;;;;;1999.90;999.90;;;;;;;;;;6183297;23;20016;-66
2023/10/07 08:41:35;;;;;;;;;;;;;;;;;;6184140;23;20051;-77
2023/10/07 08:44:14;;;;;;;1999.90;999.90;;;;;;;;;;6183377;23;19967;-75
2023/10/07 08:47:26;;;;;;;1999.90;999.90;;;;;;;;;;6156856;23;20063;-72
2023/10/07 08:49:29;;;;;;;1999.90;999.90;;;;;;;;;;6167109;23;20013;-65
2023/10/07 08:51:56;;;;;;;1999.90;999.90;;;;;;;;;;6156980;23;20009;-78
2023/10/07 08:54:36;;;;;;;1999.90;999.90;;;;;;;;;;6183373;23;20321;-69
2023/10/07 08:57:19;;;;;;;1999.90;999.90;;;;;;;;;;6183204;23;20306;-70
2023/10/07 08:59:49;;;;;;;1999.90;999.90;;;;;;;;;;6182356;23;20079;-77
2023/10/07 09:02:26;;;;;;;1999.90;999.90;;;;;;;;;;6183078;23;20036;-78
2023/10/07 09:04:53;;;;;;;1999.90;999.90;;;;;;;;;;6155542;23;20459;-74
2023/10/07 09:07:20;;;;;;;1999.90;999.90;;;;;;;;;;6183549;23;20041;-78
2023/10/07 09:09:47;;;;;;;1999.90;999.90;;;;;;;;;;6156873;23;20427;-72
2023/10/07 09:12:18;;;;;;;1999.90;999.90;;;;;;;;;;6183233;23;20094;-79
2023/10/07 09:14:57;;;;;;;1999.90;999.90;;;;;;;;;;6183100;23;20005;-77
2023/10/07 09:17:26;;;;;;;1999.90;999.90;;;;;;;;;;6156890;23;20012;-76
2023/10/07 09:19:53;;;;;;;1999.90;999.90;;;;;;;;;;6183471;23;20005;-73
2023/10/07 09:22:25;;;;;;;1999.90;999.90;;;;;;;;;;6183959;23;20019;-79
2023/10/07 09:25:08;;;;;;;1999.90;999.90;;;;;;;;;;6183773;23;20012;-75
2023/10/07 09:27:37;;;;;;;1999.90;999.90;;;;;;;;;;6182980;23;20424;-77
2023/10/07 09:30:13;;;;;;;1999.90;999.90;;;;;;;;;;6183029;23;20436;-77
2023/10/07 09:32:42;;;;;;;1999.90;999.90;;;;;;;;;;6182915;23;20095;-78
2023/10/07 09:35:19;;;;;;;1999.90;999.90;;;;;;;;;;6183525;23;20063;-74
2023/10/07 09:37:46;;;;;;;1999.90;999.90;;;;;;;;;;6182498;23;20123;-75
2023/10/07 09:40:53;;;;;;;1999.90;999.90;;;;;;;;;;6155966;23;20009;-77
2023/10/07 09:43:07;;;;;;;;;;;;;;;;;;6183472;23;20099;-77
2023/10/07 09:45:34;;;;;;;1999.90;999.90;;;;;;;;;;6183014;23;19912;-77
2023/10/07 09:48:01;;;;;;;1999.90;999.90;;;;;;;;;;6155690;23;20556;-70
2023/10/07 09:50:33;;;;;;;1999.90;999.90;;;;;;;;;;6182978;23;20027;-76
2023/10/07 09:52:59;;;;;;;;;;;;;;;;;;6183816;23;20001;-72
2023/10/07 09:55:31;;;;;;;1999.90;999.90;;;;;;;;;;6182816;23;19934;-76
2023/10/07 09:58:17;;;;;;;1999.90;999.90;;;;;;;;;;6182534;23;20005;-77
2023/10/07 10:00:43;;;;;;;1999.90;999.90;;;;;;;;;;6182426;23;20084;-70
2023/10/07 10:03:25;;;;;;;1999.90;999.90;;;;;;;;;;6183328;23;20033;-76
2023/10/07 10:06:07;;;;;;;1999.90;999.90;;;;;;;;;;6156288;23;20028;-77
2023/10/07 10:08:35;;;;;;;;;;;;;;;;;;6183824;23;20017;-74
2023/10/07 10:11:09;;;;;;;1999.90;999.90;;;;;;;;;;6156623;23;19931;-77
2023/10/07 10:16:04;;;;;;;1999.90;999.90;;;;;;;;;;6187299;23;20067;-70
2023/10/07 10:18:38;;;;;;;1999.90;999.90;;;;;;;;;;6182678;23;20005;-78
2023/10/07 10:21:05;;;;;;;1999.90;999.90;;;;;;;;;;6156377;23;20001;-79
2023/10/07 10:23:37;;;;;;;1999.90;999.90;;;;;;;;;;6182726;23;20013;-78
2023/10/07 10:26:20;;;;;;;1999.90;999.90;;;;;;;;;;6182634;23;20009;-65
2023/10/07 10:28:59;;;;;;;1999.90;999.90;;;;;;;;;;6155753;23;19997;-76
2023/10/07 10:31:32;;;;;;;1999.90;999.90;;;;;;;;;;6182361;23;20009;-78
2023/10/07 10:33:58;;;;;;;1999.90;999.90;;;;;;;;;;6182594;23;20016;-73
2023/10/07 10:36:24;;;;;;;1999.90;999.90;;;;;;;;;;6182995;23;20001;-75
2023/10/07 10:38:51;;;;;;;1999.90;999.90;;;;;;;;;;6182780;23;20001;-67
2023/10/07 10:41:29;;;;;;;1999.90;999.90;;;;;;;;;;6182633;23;20096;-76
2023/10/07 10:44:06;;;;;;;1999.90;999.90;;;;;;;;;;6183204;23;20067;-77
2023/10/07 10:46:44;;;;;;;1999.90;999.90;;;;;;;;;;6182728;23;20017;-75
2023/10/07 10:49:11;;;;;;;1999.90;999.90;;;;;;;;;;6156634;23;20079;-75
2023/10/07 10:51:43;;;;;;;1999.90;999.90;;;;;;;;;;6156068;23;20406;-71
2023/10/07 10:54:09;;;;;;;1999.90;999.90;;;;;;;;;;6183105;23;20333;-74
2023/10/07 10:56:44;;;;;;;1999.90;999.90;;;;;;;;;;6183065;23;20005;-62
2023/10/07 10:59:10;;;;;;;1999.90;999.90;;;;;;;;;;6156309;23;20084;-74
2023/10/07 11:01:42;;;;;;;1999.90;999.90;;;;;;;;;;6182691;23;20001;-74
2023/10/07 11:04:08;;;;;;;1999.90;999.90;;;;;;;;;;6183442;23;20016;-69
2023/10/07 11:06:35;;;;;;;1999.90;999.90;;;;;;;;;;6155501;23;20013;-77
2023/10/07 11:09:03;;;;;;;1999.90;999.90;;;;;;;;;;6183132;23;20130;-78
2023/10/07 11:11:30;;;;;;;1999.90;999.90;;;;;;;;;;6183477;23;20067;-75
2023/10/07 11:13:56;;;;;;;1999.90;999.90;;;;;;;;;;6183151;23;20036;-75
2023/10/07 11:16:22;;;;;;;1999.90;999.90;;;;;;;;;;6182594;23;20009;-77
2023/10/07 11:18:51;;;;;;;1999.90;999.90;;;;;;;;;;6183065;23;20444;-75
2023/10/07 11:21:21;;;;;;;1999.90;999.90;;;;;;;;;;6183351;23;20016;-70
2023/10/07 11:23:49;;;;;;;1999.90;999.90;;;;;;;;;;6182961;23;20024;-75
2023/10/07 11:26:17;;;;;;;1999.90;999.90;;;;;;;;;;6182405;23;20017;-75
2023/10/07 11:28:43;;;;;;;1999.90;999.90;;;;;;;;;;6182254;23;20001;-75
2023/10/07 11:31:10;;;;;;;1999.90;999.90;;;;;;;;;;6182365;23;20181;-72
2023/10/07 11:33:36;;;;;;;1999.90;999.90;;;;;;;;;;6181955;23;20096;-76
2023/10/07 11:36:03;;;;;;;1999.90;999.90;;;;;;;;;;6183790;23;20385;-76
2023/10/07 11:38:29;;;;;;;1999.90;999.90;;;;;;;;;;6184313;23;20073;-76
2023/10/07 11:40:56;;;;;;;1999.90;999.90;;;;;;;;;;6184131;23;20001;-77
2023/10/07 11:43:22;;;;;;;1999.90;999.90;;;;;;;;;;6184160;23;20525;-76
2023/10/07 11:45:50;;;;;;;1999.90;999.90;;;;;;;;;;6184305;23;20602;-78
2023/10/07 11:48:19;;;;;;;1999.90;999.90;;;;;;;;;;6184762;23;20310;-78
2023/10/07 11:50:47;;;;;;;1999.90;999.90;;;;;;;;;;6185007;23;20063;-78
2023/10/07 11:53:13;;;;;;;1999.90;999.90;;;;;;;;;;6184474;23;20052;-78
2023/10/07 11:55:39;;;;;;;1999.90;999.90;;;;;;;;;;6184433;23;20005;-78
2023/10/07 11:58:07;;;;;;;1999.90;999.90;;;;;;;;;;6184350;23;19997;-72
2023/10/07 12:00:34;;;;;;;1999.90;999.90;;;;;;;;;;6184208;23;20040;-75
2023/10/07 12:03:04;;;;;;;1999.90;999.90;;;;;;;;;;6184444;23;20009;-77
2023/10/07 12:05:31;;;;;;;1999.90;999.90;;;;;;;;;;6184019;23;20017;-77
2023/10/07 12:08:01;;;;;;;1999.90;999.90;;;;;;;;;;6184351;23;20386;-71
2023/10/07 12:10:33;;;;;;;1999.90;999.90;;;;;;;;;;6183945;23;20009;-72
2023/10/07 12:12:59;;;;;;;1999.90;999.90;;;;;;;;;;6184117;23;20009;-78
2023/10/07 12:15:26;;;;;;;1999.90;999.90;;;;;;;;;;6183810;23;20031;-76
2023/10/07 12:17:52;;;;;;;1999.90;999.90;;;;;;;;;;6183800;23;20001;-69
2023/10/07 12:20:22;;;;;;;1999.90;999.90;;;;;;;;;;6184072;23;20005;-77
2023/10/07 12:22:49;;;;;;;1999.90;999.90;;;;;;;;;;6183519;23;20055;-77
2023/10/07 12:25:16;;;;;;;1999.90;999.90;;;;;;;;;;6183551;23;20007;-66
2023/10/07 12:27:53;;;;;;;1999.90;999.90;;;;;;;;;;6183303;23;20422;-77
2023/10/07 12:30:23;;;;;;;1999.90;999.90;;;;;;;;;;6183803;23;20036;-77
2023/10/07 12:32:51;;;;;;;1999.90;999.90;;;;;;;;;;6183288;23;20012;-77
2023/10/07 12:35:19;;;;;;;1999.90;999.90;;;;;;;;;;6183967;23;20500;-75
2023/10/07 12:37:48;;;;;;;1999.90;999.90;;;;;;;;;;6183870;23;20009;-76
2023/10/07 12:40:17;;;;;;;1999.90;999.90;;;;;;;;;;6183232;23;20058;-77
2023/10/07 12:42:50;;;;;;;1999.90;999.90;;;;;;;;;;6183741;23;20008;-77
2023/10/07 12:45:18;;;;;;;1999.90;999.90;;;;;;;;;;6183375;23;20088;-77
2023/10/07 12:47:45;;;;;;;1999.90;999.90;;;;;;;;;;6183696;23;20023;-76
2023/10/07 12:50:23;;;;;;;1999.90;999.90;;;;;;;;;;6183938;23;20804;-76
2023/10/07 12:52:53;;;;;;;1999.90;999.90;;;;;;;;;;6184008;23;20005;-77
2023/10/07 12:55:19;;;;;;;1999.90;999.90;;;;;;;;;;6183798;23;20041;-73
2023/10/07 12:57:49;;;;;;;1999.90;999.90;;;;;;;;;;6183141;23;20358;-77
2023/10/07 13:00:31;;;;;;;1999.90;999.90;;;;;;;;;;6183332;23;20029;-77
2023/10/07 13:02:58;;;;;;;1999.90;999.90;;;;;;;;;;6183619;23;20484;-75
2023/10/07 13:05:24;;;;;;;1999.90;999.90;;;;;;;;;;6183249;23;20021;-76
2023/10/07 13:07:54;;;;;;;1999.90;999.90;;;;;;;;;;6183431;23;20705;-72
2023/10/07 13:10:20;;;;;;;1999.90;999.90;;;;;;;;;;6184105;23;20088;-77
2023/10/07 13:12:57;;;;;;;1999.90;999.90;;;;;;;;;;6184041;23;20001;-76
2023/10/07 13:15:30;;;;;;;1999.90;999.90;;;;;;;;;;6182849;23;20001;-74
2023/10/07 13:17:58;;;;;;;1999.90;999.90;;;;;;;;;;6183332;23;20008;-81
2023/10/07 13:20:26;;;;;;;1999.90;999.90;;;;;;;;;;6183300;23;20029;-76
2023/10/07 13:23:05;;;;;;;1999.90;999.90;;;;;;;;;;6155878;23;20096;-64
2023/10/07 13:25:33;;;;;;;1999.90;999.90;;;;;;;;;;6182554;23;20009;-65
2023/10/07 13:28:00;;;;;;;1999.90;999.90;;;;;;;;;;6182808;23;20002;-79
2023/10/07 13:30:26;;;;;;;1999.90;999.90;;;;;;;;;;6183361;23;20008;-69
2023/10/07 13:32:54;;;;;;;1999.90;999.90;;;;;;;;;;6157210;23;20048;-71
2023/10/07 13:35:20;;;;;;;1999.90;999.90;;;;;;;;;;6183582;23;20013;-66
2023/10/07 13:37:49;;;;;;;1999.90;999.90;;;;;;;;;;6183069;23;20120;-77
2023/10/07 13:40:16;;;;;;;1999.90;999.90;;;;;;;;;;6183670;23;20075;-76
2023/10/07 13:42:47;;;;;;;1999.90;999.90;;;;;;;;;;6183279;23;20493;-70
2023/10/07 13:45:39;;;;;;;1999.90;999.90;;;;;;;;;;6183607;23;20100;-73
2023/10/07 13:48:07;;;;;;;1999.90;999.90;;;;;;;;;;6179302;23;20788;-77
2023/10/07 13:50:33;;;;;;;1999.90;999.90;;;;;;;;;;6183806;23;20011;-66
2023/10/07 13:53:12;;;;;;;1999.90;999.90;;;;;;;;;;6183266;23;20080;-75
2023/10/07 13:58:12;;;;;;;1999.90;999.90;;;;;;;;;;6194355;23;20024;-75
2023/10/07 14:00:44;;;;;;;1999.90;999.90;;;;;;;;;;6157394;23;20001;-76
2023/10/07 14:03:37;;;;;;;1999.90;999.90;;;;;;;;;;6158014;23;20289;-70
2023/10/07 14:06:02;;;;;;;1999.90;999.90;;;;;;;;;;6186013;23;20021;-76
2023/10/07 14:08:29;;;;;;;1999.90;999.90;;;;;;;;;;6182824;23;20005;-75
2023/10/07 14:10:56;;;;;;;1999.90;999.90;;;;;;;;;;6184176;23;20011;-75
2023/10/07 14:13:23;;;;;;;1999.90;999.90;;;;;;;;;;6182886;23;20488;-75
2023/10/07 14:15:52;;;;;;;1999.90;999.90;;;;;;;;;;6182969;23;20088;-75
2023/10/07 14:18:20;;;;;;;1999.90;999.90;;;;;;;;;;6182793;23;20008;-76
2023/10/07 14:20:56;;;;;;;1999.90;999.90;;;;;;;;;;6182897;23;20084;-67
2023/10/07 14:23:23;;;;;;;1999.90;999.90;;;;;;;;;;6182721;23;20020;-69
2023/10/07 14:25:52;;;;;;;1999.90;999.90;;;;;;;;;;6183845;23;20083;-76
2023/10/07 14:28:19;;;;;;;1999.90;999.90;;;;;;;;;;6182873;23;20024;-71
2023/10/07 14:30:46;;;;;;;1999.90;999.90;;;;;;;;;;6182699;23;20008;-71
2023/10/07 14:33:12;;;;;;;1999.90;999.90;;;;;;;;;;6182238;23;20436;-76
2023/10/07 14:35:40;;;;;;;1999.90;999.90;;;;;;;;;;6182532;23;20369;-73
2023/10/07 14:38:10;;;;;;;1999.90;999.90;;;;;;;;;;6182529;23;20012;-70
2023/10/07 14:40:39;;;;;;;1999.90;999.90;;;;;;;;;;6183043;23;20005;-68
2023/10/07 14:43:07;;;;;;;1999.90;999.90;;;;;;;;;;6185455;23;20026;-71
2023/10/07 14:45:34;;;;;;;1999.90;999.90;;;;;;;;;;6183257;23;20013;-70